createdAt,value
2018-09-25T00:01:23.217Z,102706.00
2018-09-25T00:03:57.820Z,102709.00
2018-09-25T00:06:32.006Z,102712.00
2018-09-25T00:09:06.140Z,102715.00
2018-09-25T00:11:40.483Z,102717.00
2018-09-25T00:14:14.838Z,102720.00
2018-09-25T00:16:48.997Z,102718.00
2018-09-25T00:19:23.358Z,102720.00
2018-09-25T00:21:57.554Z,102725.00
2018-09-25T00:24:31.793Z,102732.00
2018-09-25T00:27:05.975Z,102737.00
2018-09-25T00:29:40.177Z,102732.00
2018-09-25T00:32:14.503Z,102741.00
2018-09-25T00:34:48.911Z,102725.00
2018-09-25T00:37:23.145Z,102741.00
2018-09-25T00:39:57.402Z,102737.00
2018-09-25T00:42:31.819Z,102721.00
2018-09-25T00:45:06.049Z,102735.00
2018-09-25T00:47:40.231Z,102722.00
2018-09-25T00:50:14.918Z,102726.00
2018-09-25T00:52:48.982Z,102742.00
2018-09-25T00:55:23.230Z,102742.00
2018-09-25T00:57:57.393Z,102739.00
2018-09-25T01:00:31.619Z,102755.00
2018-09-25T01:03:05.807Z,102751.00
2018-09-25T01:05:40.372Z,102753.00
2018-09-25T01:08:14.560Z,102754.00
2018-09-25T01:10:49.380Z,102769.00
2018-09-25T01:13:23.660Z,102771.00
2018-09-25T01:15:57.974Z,102764.00
2018-09-25T01:18:32.236Z,102755.00
2018-09-25T01:21:06.743Z,102761.00
2018-09-25T01:23:40.879Z,102765.00
2018-09-25T01:26:15.153Z,102775.00
2018-09-25T01:28:49.291Z,102772.00
2018-09-25T01:31:23.397Z,102773.00
2018-09-25T01:33:57.511Z,102774.00
2018-09-25T01:36:31.939Z,102756.00
2018-09-25T01:39:06.027Z,102773.00
2018-09-25T01:41:40.157Z,102770.00
2018-09-25T01:44:14.892Z,102777.00
2018-09-25T01:46:49.172Z,102791.00
2018-09-25T01:49:23.450Z,102782.00
2018-09-25T01:51:58.043Z,102772.00
2018-09-25T01:54:32.170Z,102787.00
2018-09-25T01:57:06.479Z,102789.00
2018-09-25T01:59:40.737Z,102788.00
2018-09-25T02:02:14.882Z,102785.00
2018-09-25T02:04:49.194Z,102796.00
2018-09-25T02:07:23.539Z,102788.00
2018-09-25T02:09:57.687Z,102805.00
2018-09-25T02:12:32.005Z,102807.00
2018-09-25T02:15:06.313Z,102806.00
2018-09-25T02:17:40.695Z,102800.00
2018-09-25T02:20:15.059Z,102809.00
2018-09-25T02:22:49.809Z,102817.00
2018-09-25T02:25:24.061Z,102816.00
2018-09-25T02:27:58.233Z,102813.00
2018-09-25T02:30:32.368Z,102818.00
2018-09-25T02:33:06.619Z,102825.00
2018-09-25T02:35:40.726Z,102828.00
2018-09-25T02:38:15.669Z,102820.00
2018-09-25T02:40:49.713Z,102817.00
2018-09-25T02:43:23.831Z,102834.00
2018-09-25T02:45:58.341Z,102832.00
2018-09-25T02:48:32.593Z,102835.00
2018-09-25T02:51:06.717Z,102832.00
2018-09-25T02:53:41.329Z,102843.00
2018-09-25T02:56:15.324Z,102848.00
2018-09-25T02:58:49.407Z,102843.00
2018-09-25T03:01:23.575Z,102845.00
2018-09-25T03:03:57.845Z,102845.00
2018-09-25T03:06:31.962Z,102848.00
2018-09-25T03:09:06.473Z,102854.00
2018-09-25T03:11:40.626Z,102862.00
2018-09-25T03:14:15.011Z,102855.00
2018-09-25T03:16:49.114Z,102851.00
2018-09-25T03:19:23.278Z,102854.00
2018-09-25T03:21:57.360Z,102862.00
2018-09-25T03:24:31.957Z,102861.00
2018-09-25T03:27:06.189Z,102867.00
2018-09-25T03:29:40.359Z,102863.00
2018-09-25T03:32:14.511Z,102866.00
2018-09-25T03:34:48.565Z,102869.00
2018-09-25T03:37:22.558Z,102864.00
2018-09-25T03:39:57.210Z,102874.00
2018-09-25T03:42:31.444Z,102880.00
2018-09-25T03:45:05.763Z,102871.00
2018-09-25T03:47:40.436Z,102878.00
2018-09-25T03:50:14.695Z,102874.00
2018-09-25T03:52:49.011Z,102876.00
2018-09-25T03:55:23.280Z,102879.00
2018-09-25T03:57:57.323Z,102885.00
2018-09-25T04:00:31.477Z,102904.00
2018-09-25T04:03:05.656Z,102887.00
2018-09-25T04:05:39.798Z,102904.00
2018-09-25T04:08:14.011Z,102903.00
2018-09-25T04:10:48.752Z,102901.00
2018-09-25T04:13:22.874Z,102916.00
2018-09-25T04:15:56.937Z,102922.00
2018-09-25T04:18:31.060Z,102927.00
2018-09-25T04:21:05.373Z,102943.00
2018-09-25T04:23:39.606Z,102944.00
2018-09-25T04:26:14.226Z,102953.00
2018-09-25T04:28:48.391Z,102954.00
2018-09-25T04:31:22.489Z,102955.00
2018-09-25T04:33:56.639Z,102962.00
2018-09-25T04:36:30.951Z,102961.00
2018-09-25T04:39:05.077Z,102958.00
2018-09-25T04:41:40.181Z,102960.00
2018-09-25T04:44:14.489Z,102973.00
2018-09-25T04:46:48.693Z,102972.00
2018-09-25T04:49:23.214Z,102974.00
2018-09-25T04:51:57.483Z,102975.00
2018-09-25T04:54:31.601Z,102981.00
2018-09-25T04:57:06.158Z,102978.00
2018-09-25T04:59:40.267Z,102989.00
2018-09-25T05:02:14.526Z,102996.00
2018-09-25T05:04:48.644Z,102992.00
2018-09-25T05:07:22.801Z,102988.00
2018-09-25T05:09:57.000Z,102994.00
2018-09-25T05:12:31.595Z,102998.00
2018-09-25T05:15:05.745Z,102985.00
2018-09-25T05:17:40.007Z,103000.00
2018-09-25T05:20:14.195Z,102993.00
2018-09-25T05:22:48.430Z,103006.00
2018-09-25T05:25:22.707Z,103002.00
2018-09-25T05:27:57.252Z,103014.00
2018-09-25T05:30:31.393Z,103013.00
2018-09-25T05:33:05.575Z,103017.00
2018-09-25T05:35:39.750Z,103021.00
2018-09-25T05:38:14.018Z,103025.00
2018-09-25T05:40:48.226Z,103024.00
2018-09-25T05:43:22.893Z,103029.00
2018-09-25T05:45:57.227Z,103027.00
2018-09-25T05:48:31.485Z,103018.00
2018-09-25T05:51:06.366Z,103022.00
2018-09-25T05:53:40.595Z,103043.00
2018-09-25T05:56:14.708Z,103047.00
2018-09-25T05:58:49.325Z,103047.00
2018-09-25T06:01:24.394Z,103049.00
2018-09-25T06:03:58.686Z,103041.00
2018-09-25T06:06:33.028Z,103054.00
2018-09-25T06:09:07.174Z,103052.00
2018-09-25T06:11:41.278Z,103059.00
2018-09-25T06:14:16.083Z,103070.00
2018-09-25T06:16:50.236Z,103074.00
2018-09-25T06:19:24.638Z,103071.00
2018-09-25T06:21:58.888Z,103070.00
2018-09-25T06:24:33.183Z,103075.00
2018-09-25T06:27:07.351Z,103074.00
2018-09-25T06:29:42.064Z,103075.00
2018-09-25T06:32:16.323Z,103072.00
2018-09-25T06:34:50.490Z,103089.00
2018-09-25T06:37:24.686Z,103096.00
2018-09-25T06:39:58.806Z,103090.00
2018-09-25T06:42:33.124Z,103097.00
2018-09-25T06:45:07.773Z,103094.00
2018-09-25T06:47:42.018Z,103105.00
2018-09-25T06:50:16.218Z,103100.00
2018-09-25T06:52:50.882Z,103108.00
2018-09-25T06:55:26.042Z,103113.00
2018-09-25T06:58:00.199Z,103109.00
2018-09-25T07:00:43.098Z,103121.00
2018-09-25T07:03:17.193Z,103127.00
2018-09-25T07:05:51.310Z,103126.00
2018-09-25T07:08:25.535Z,103133.00
2018-09-25T07:10:59.673Z,103127.00
2018-09-25T07:13:33.797Z,103137.00
2018-09-25T07:16:08.410Z,103156.00
2018-09-25T07:18:42.553Z,103163.00
2018-09-25T07:21:16.549Z,103161.00
2018-09-25T07:23:50.795Z,103161.00
2018-09-25T07:26:25.103Z,103166.00
2018-09-25T07:28:59.431Z,103179.00
2018-09-25T07:31:33.995Z,103172.00
2018-09-25T07:34:08.311Z,103180.00
2018-09-25T07:36:42.519Z,103175.00
2018-09-25T07:39:16.749Z,103176.00
2018-09-25T07:41:50.730Z,103163.00
2018-09-25T07:44:24.994Z,103177.00
2018-09-25T07:46:59.703Z,103183.00
2018-09-25T07:49:33.863Z,103185.00
2018-09-25T07:52:08.058Z,103181.00
2018-09-25T07:54:42.631Z,103184.00
2018-09-25T07:57:16.946Z,103195.00
2018-09-25T07:59:51.262Z,103187.00
2018-09-25T08:02:25.817Z,103196.00
2018-09-25T08:05:00.103Z,103185.00
2018-09-25T08:07:34.258Z,103188.00
2018-09-25T08:10:08.454Z,103197.00
2018-09-25T08:12:42.674Z,103203.00
2018-09-25T08:15:16.837Z,103190.00
2018-09-25T08:17:51.663Z,103201.00
2018-09-25T08:20:25.863Z,103204.00
2018-09-25T08:23:00.085Z,103208.00
2018-09-25T08:25:34.277Z,103206.00
2018-09-25T08:28:08.428Z,103209.00
2018-09-25T08:30:42.567Z,103210.00
2018-09-25T08:33:17.134Z,103207.00
2018-09-25T08:35:51.340Z,103214.00
2018-09-25T08:38:25.646Z,103209.00
2018-09-25T08:40:59.934Z,103214.00
2018-09-25T08:43:34.074Z,103212.00
2018-09-25T08:46:08.270Z,103226.00
2018-09-25T08:48:43.131Z,103235.00
2018-09-25T08:51:17.408Z,103235.00
2018-09-25T08:53:51.696Z,103235.00
2018-09-25T08:56:26.258Z,103237.00
2018-09-25T08:59:00.402Z,103241.00
2018-09-25T09:01:34.503Z,103233.00
2018-09-25T09:04:09.041Z,103239.00
2018-09-25T09:06:43.226Z,103246.00
2018-09-25T09:09:17.372Z,103245.00
2018-09-25T09:11:51.570Z,103248.00
2018-09-25T09:14:25.819Z,103259.00
2018-09-25T09:17:00.076Z,103255.00
2018-09-25T09:19:34.672Z,103259.00
2018-09-25T09:22:09.033Z,103245.00
2018-09-25T09:24:43.181Z,103260.00
2018-09-25T09:27:17.415Z,103253.00
2018-09-25T09:29:51.734Z,103264.00
2018-09-25T09:32:25.906Z,103261.00
2018-09-25T09:35:00.446Z,103266.00
2018-09-25T09:37:34.563Z,103255.00
2018-09-25T09:40:08.626Z,103267.00
2018-09-25T09:42:42.779Z,103261.00
2018-09-25T09:45:17.030Z,103269.00
2018-09-25T09:47:51.350Z,103272.00
2018-09-25T09:50:26.006Z,103258.00
2018-09-25T09:53:00.193Z,103270.00
2018-09-25T09:55:34.411Z,103262.00
2018-09-25T09:58:09.199Z,103259.00
2018-09-25T10:00:43.934Z,103273.00
2018-09-25T10:03:18.073Z,103272.00
2018-09-25T10:05:52.672Z,103264.00
2018-09-25T10:08:26.835Z,103265.00
2018-09-25T10:11:01.020Z,103271.00
2018-09-25T10:13:35.249Z,103274.00
2018-09-25T10:16:09.347Z,103268.00
2018-09-25T10:18:43.610Z,103268.00
2018-09-25T10:21:18.277Z,103275.00
2018-09-25T10:23:52.569Z,103267.00
2018-09-25T10:26:26.694Z,103278.00
2018-09-25T10:29:00.798Z,103279.00
2018-09-25T10:31:35.157Z,103276.00
2018-09-25T10:34:09.324Z,103275.00
2018-09-25T10:36:44.087Z,103275.00
2018-09-25T10:39:18.243Z,103288.00
2018-09-25T10:41:52.513Z,103284.00
2018-09-25T10:44:26.659Z,103277.00
2018-09-25T10:47:00.731Z,103285.00
2018-09-25T10:49:35.019Z,103283.00
2018-09-25T10:52:09.692Z,103291.00
2018-09-25T10:54:43.900Z,103298.00
2018-09-25T10:57:18.335Z,103286.00
2018-09-25T10:59:52.884Z,103293.00
2018-09-25T11:02:27.097Z,103299.00
2018-09-25T11:05:01.162Z,103293.00
2018-09-25T11:07:35.626Z,103298.00
2018-09-25T11:10:09.819Z,103291.00
2018-09-25T11:12:44.086Z,103289.00
2018-09-25T11:15:18.325Z,103289.00
2018-09-25T11:17:52.596Z,103298.00
2018-09-25T11:20:26.711Z,103290.00
2018-09-25T11:23:01.195Z,103292.00
2018-09-25T11:25:35.466Z,103283.00
2018-09-25T11:28:09.714Z,103306.00
2018-09-25T11:30:43.850Z,103305.00
2018-09-25T11:33:18.154Z,103301.00
2018-09-25T11:35:52.181Z,103300.00
2018-09-25T11:38:26.495Z,103295.00
2018-09-25T11:41:00.784Z,103309.00
2018-09-25T11:43:35.019Z,103302.00
2018-09-25T11:46:09.228Z,103299.00
2018-09-25T11:48:43.567Z,103299.00
2018-09-25T11:51:17.739Z,103300.00
2018-09-25T11:53:52.127Z,103307.00
2018-09-25T11:56:26.565Z,103292.00
2018-09-25T11:59:00.716Z,103295.00
2018-09-25T12:01:35.405Z,103306.00
2018-09-25T12:04:09.749Z,103299.00
2018-09-25T12:06:43.967Z,103308.00
2018-09-25T12:09:18.623Z,103320.00
2018-09-25T12:11:52.862Z,103303.00
2018-09-25T12:14:27.126Z,103314.00
2018-09-25T12:17:01.493Z,103297.00
2018-09-25T12:19:35.698Z,103310.00
2018-09-25T12:22:09.938Z,103310.00
2018-09-25T12:24:44.801Z,103317.00
2018-09-25T12:27:18.826Z,103316.00
2018-09-25T12:29:52.945Z,103314.00
2018-09-25T12:32:27.284Z,103307.00
2018-09-25T12:35:01.412Z,103313.00
2018-09-25T12:37:35.528Z,103310.00
2018-09-25T12:40:10.028Z,103310.00
2018-09-25T12:42:44.274Z,103306.00
2018-09-25T12:45:18.621Z,103314.00
2018-09-25T12:47:52.967Z,103311.00
2018-09-25T12:50:27.271Z,103305.00
2018-09-25T12:53:01.490Z,103304.00
2018-09-25T12:55:36.154Z,103316.00
2018-09-25T12:58:10.257Z,103310.00
2018-09-25T13:00:44.381Z,103309.00
2018-09-25T13:03:18.829Z,103307.00
2018-09-25T13:05:53.035Z,103307.00
2018-09-25T13:08:27.235Z,103314.00
2018-09-25T13:11:01.996Z,103306.00
2018-09-25T13:13:36.230Z,103314.00
2018-09-25T13:16:10.378Z,103313.00
2018-09-25T13:18:44.623Z,103302.00
2018-09-25T13:21:18.848Z,103315.00
2018-09-25T13:23:53.050Z,103305.00
2018-09-25T13:26:27.762Z,103304.00
2018-09-25T13:29:01.891Z,103306.00
2018-09-25T13:31:36.106Z,103299.00
2018-09-25T13:34:10.383Z,103302.00
2018-09-25T13:36:44.545Z,103298.00
2018-09-25T13:39:18.769Z,103298.00
2018-09-25T13:41:53.220Z,103302.00
2018-09-25T13:44:27.422Z,103296.00
2018-09-25T13:47:01.719Z,103298.00
2018-09-25T13:49:35.830Z,103298.00
2018-09-25T13:52:09.866Z,103289.00
2018-09-25T13:54:43.991Z,103298.00
2018-09-25T13:57:18.561Z,103291.00
2018-09-25T13:59:52.826Z,103286.00
2018-09-25T14:02:27.250Z,103288.00
2018-09-25T14:05:01.865Z,103286.00
2018-09-25T14:07:36.054Z,103282.00
2018-09-25T14:10:10.379Z,103288.00
2018-09-25T14:12:45.256Z,103283.00
2018-09-25T14:15:19.535Z,103281.00
2018-09-25T14:17:53.659Z,103275.00
2018-09-25T14:20:27.959Z,103270.00
2018-09-25T14:23:02.066Z,103270.00
2018-09-25T14:25:36.222Z,103258.00
2018-09-25T14:28:11.159Z,103272.00
2018-09-25T14:30:45.266Z,103257.00
2018-09-25T14:33:19.698Z,103255.00
2018-09-25T14:35:53.904Z,103258.00
2018-09-25T14:38:28.169Z,103254.00
2018-09-25T14:41:02.433Z,103264.00
2018-09-25T14:43:37.083Z,103269.00
2018-09-25T14:46:11.355Z,103265.00
2018-09-25T14:48:45.514Z,103269.00
2018-09-25T14:51:19.593Z,103272.00
2018-09-25T14:53:53.892Z,103269.00
2018-09-25T14:56:28.214Z,103274.00
2018-09-25T14:59:02.626Z,103270.00
2018-09-25T15:01:36.933Z,103274.00
2018-09-25T15:04:10.983Z,103269.00
2018-09-25T15:06:45.619Z,103267.00
2018-09-25T15:09:19.782Z,103255.00
2018-09-25T15:11:53.917Z,103267.00
2018-09-25T15:14:28.535Z,103267.00
2018-09-25T15:17:02.687Z,103274.00
2018-09-25T15:19:36.933Z,103272.00
2018-09-25T15:22:11.373Z,103260.00
2018-09-25T15:24:45.156Z,103274.00
2018-09-25T15:27:19.298Z,103267.00
2018-09-25T15:29:53.602Z,103289.00
2018-09-25T15:32:27.588Z,103282.00
2018-09-25T15:35:01.780Z,103280.00
2018-09-25T15:37:35.717Z,103283.00
2018-09-25T15:40:10.295Z,103290.00
2018-09-25T15:42:44.515Z,103279.00
2018-09-25T15:45:19.263Z,103291.00
2018-09-25T15:47:53.454Z,103291.00
2018-09-25T15:50:27.765Z,103282.00
2018-09-25T15:53:02.011Z,103279.00
2018-09-25T15:55:36.306Z,103285.00
2018-09-25T15:58:10.675Z,103290.00
2018-09-25T16:00:45.528Z,103289.00
2018-09-25T16:03:19.836Z,103297.00
2018-09-25T16:05:54.049Z,103310.00
2018-09-25T16:08:28.547Z,103303.00
2018-09-25T16:11:02.526Z,103311.00
2018-09-25T16:13:36.738Z,103321.00
2018-09-25T16:16:11.277Z,103316.00
2018-09-25T16:18:45.588Z,103318.00
2018-09-25T16:21:19.727Z,103313.00
2018-09-25T16:23:53.848Z,103316.00
2018-09-25T16:26:28.089Z,103313.00
2018-09-25T16:29:02.188Z,103308.00
2018-09-25T16:31:36.839Z,103305.00
2018-09-25T16:34:11.051Z,103294.00
2018-09-25T16:36:45.221Z,103300.00
2018-09-25T16:39:19.605Z,103300.00
2018-09-25T16:41:54.690Z,103309.00
2018-09-25T16:44:29.014Z,103313.00
2018-09-25T16:47:10.222Z,103290.00
2018-09-25T16:49:44.349Z,103298.00
2018-09-25T16:52:18.463Z,103302.00
2018-09-25T16:54:52.702Z,103305.00
2018-09-25T16:57:27.071Z,103317.00
2018-09-25T17:00:01.272Z,103329.00
2018-09-25T17:02:35.943Z,103327.00
2018-09-25T17:05:10.066Z,103333.00
2018-09-25T17:07:44.170Z,103327.00
2018-09-25T17:10:19.122Z,103322.00
2018-09-25T17:12:53.426Z,103331.00
2018-09-25T17:15:27.768Z,103338.00
2018-09-25T17:18:02.336Z,103333.00
2018-09-25T17:20:36.625Z,103334.00
2018-09-25T17:23:10.805Z,103336.00
2018-09-25T17:25:44.972Z,103339.00
2018-09-25T17:28:19.050Z,103330.00
2018-09-25T17:30:53.124Z,103332.00
2018-09-25T17:33:27.731Z,103330.00
2018-09-25T17:36:01.752Z,103336.00
2018-09-25T17:38:35.896Z,103341.00
2018-09-25T17:41:10.077Z,103343.00
2018-09-25T17:43:44.265Z,103338.00
2018-09-25T17:46:18.525Z,103333.00
2018-09-25T17:48:53.027Z,103349.00
2018-09-25T17:51:27.239Z,103340.00
2018-09-25T17:54:01.464Z,103337.00
2018-09-25T17:56:35.446Z,103351.00
2018-09-25T17:59:09.557Z,103355.00
2018-09-25T18:01:43.663Z,103348.00
2018-09-25T18:04:18.735Z,103351.00
2018-09-25T18:06:52.949Z,103352.00
2018-09-25T18:09:27.305Z,103350.00
2018-09-25T18:12:01.998Z,103346.00
2018-09-25T18:14:36.106Z,103351.00
2018-09-25T18:17:10.389Z,103353.00
2018-09-25T18:19:44.852Z,103351.00
2018-09-25T18:22:18.999Z,103349.00
2018-09-25T18:24:53.158Z,103350.00
2018-09-25T18:27:27.327Z,103346.00
2018-09-25T18:30:01.532Z,103345.00
2018-09-25T18:32:35.905Z,103357.00
2018-09-25T18:35:10.434Z,103356.00
2018-09-25T18:37:44.522Z,103352.00
2018-09-25T18:40:18.838Z,103346.00
2018-09-25T18:42:53.043Z,103353.00
2018-09-25T18:45:27.319Z,103351.00
2018-09-25T18:48:01.399Z,103349.00
2018-09-25T18:50:36.098Z,103342.00
2018-09-25T18:53:10.243Z,103348.00
2018-09-25T18:55:44.576Z,103354.00
2018-09-25T18:58:18.879Z,103349.00
2018-09-25T19:00:53.077Z,103341.00
2018-09-25T19:03:27.409Z,103360.00
2018-09-25T19:06:01.891Z,103359.00
2018-09-25T19:08:36.080Z,103362.00
2018-09-25T19:11:10.260Z,103351.00
2018-09-25T19:13:44.934Z,103235.00
2018-09-25T19:16:19.270Z,103354.00
2018-09-25T19:18:53.455Z,103360.00
2018-09-25T19:21:28.019Z,103351.00
2018-09-25T19:24:02.227Z,103364.00
2018-09-25T19:26:36.443Z,103368.00
2018-09-25T19:29:10.504Z,103358.00
2018-09-25T19:31:44.695Z,103358.00
2018-09-25T19:34:19.011Z,103360.00
2018-09-25T19:37:00.549Z,103355.00
2018-09-25T19:39:34.577Z,103362.00
2018-09-25T19:42:08.807Z,103373.00
2018-09-25T19:44:43.114Z,103363.00
2018-09-25T19:47:17.207Z,103362.00
2018-09-25T19:49:51.315Z,103360.00
2018-09-25T19:52:25.843Z,103367.00
2018-09-25T19:54:59.993Z,103358.00
2018-09-25T19:57:34.114Z,103362.00
2018-09-25T20:00:08.210Z,103361.00
2018-09-25T20:02:42.586Z,103376.00
2018-09-25T20:05:16.817Z,103373.00
2018-09-25T20:07:51.241Z,103384.00
2018-09-25T20:10:25.296Z,103376.00
2018-09-25T20:12:59.540Z,103374.00
2018-09-25T20:15:33.940Z,103374.00
2018-09-25T20:18:08.145Z,103376.00
2018-09-25T20:20:42.322Z,103375.00
2018-09-25T20:23:16.851Z,103371.00
2018-09-25T20:25:50.961Z,103373.00
2018-09-25T20:28:25.123Z,103378.00
2018-09-25T20:30:59.269Z,103385.00
2018-09-25T20:33:33.469Z,103381.00
2018-09-25T20:36:07.645Z,103389.00
2018-09-25T20:38:42.342Z,103393.00
2018-09-25T20:41:16.511Z,103396.00
2018-09-25T20:43:50.726Z,103411.00
2018-09-25T20:46:24.690Z,103391.00
2018-09-25T20:48:58.858Z,103392.00
2018-09-25T20:51:33.125Z,103393.00
2018-09-25T20:54:07.633Z,103399.00
2018-09-25T20:56:41.854Z,103400.00
2018-09-25T20:59:15.940Z,103404.00
2018-09-25T21:01:50.086Z,103408.00
2018-09-25T21:04:24.394Z,103402.00
2018-09-25T21:06:58.738Z,103397.00
2018-09-25T21:09:33.650Z,103391.00
2018-09-25T21:12:07.768Z,103390.00
2018-09-25T21:14:42.035Z,103382.00
2018-09-25T21:17:16.642Z,103389.00
2018-09-25T21:19:50.793Z,103390.00
2018-09-25T21:22:25.109Z,103385.00
2018-09-25T21:24:59.647Z,103386.00
2018-09-25T21:27:33.790Z,103385.00
2018-09-25T21:30:07.835Z,103386.00
2018-09-25T21:32:41.979Z,103376.00
2018-09-25T21:35:16.156Z,103384.00
2018-09-25T21:37:50.380Z,103385.00
2018-09-25T21:40:24.945Z,103394.00
2018-09-25T21:42:59.008Z,103387.00
2018-09-25T21:45:33.383Z,103393.00
2018-09-25T21:48:07.533Z,103392.00
2018-09-25T21:50:41.733Z,103380.00
2018-09-25T21:53:15.876Z,103381.00
2018-09-25T21:55:50.484Z,103383.00
2018-09-25T21:58:24.650Z,103385.00
2018-09-25T22:00:59.022Z,103373.00
2018-09-25T22:03:33.327Z,103363.00
2018-09-25T22:06:07.417Z,103368.00
2018-09-25T22:08:41.530Z,103378.00
2018-09-25T22:11:16.259Z,103369.00
2018-09-25T22:13:50.274Z,103366.00
2018-09-25T22:16:24.558Z,103348.00
2018-09-25T22:18:59.426Z,103362.00
2018-09-25T22:21:33.459Z,103362.00
2018-09-25T22:24:07.662Z,103355.00
2018-09-25T22:26:42.269Z,103350.00
2018-09-25T22:29:16.362Z,103339.00
2018-09-25T22:31:50.497Z,103334.00
2018-09-25T22:34:24.690Z,103336.00
2018-09-25T22:36:58.930Z,103345.00
2018-09-25T22:39:33.002Z,103362.00
2018-09-25T22:42:07.776Z,103356.00
2018-09-25T22:44:41.928Z,103344.00
2018-09-25T22:47:16.287Z,103338.00
2018-09-25T22:49:50.454Z,103318.00
2018-09-25T22:52:24.637Z,103326.00
2018-09-25T22:54:58.833Z,103323.00
2018-09-25T22:57:33.434Z,103310.00
2018-09-25T23:00:07.573Z,103318.00
2018-09-25T23:02:41.858Z,103312.00
2018-09-25T23:05:16.137Z,103304.00
2018-09-25T23:07:50.363Z,103309.00
2018-09-25T23:10:24.378Z,103307.00
2018-09-25T23:12:58.977Z,103308.00
2018-09-25T23:15:33.105Z,103316.00
2018-09-25T23:18:07.330Z,103322.00
2018-09-25T23:20:41.909Z,103326.00
2018-09-25T23:23:16.026Z,103317.00
2018-09-25T23:25:50.162Z,103316.00
2018-09-25T23:28:24.778Z,103320.00
2018-09-25T23:30:59.014Z,103323.00
2018-09-25T23:33:33.316Z,103335.00
2018-09-25T23:36:07.513Z,103328.00
2018-09-25T23:38:41.722Z,103332.00
2018-09-25T23:41:16.659Z,103340.00
2018-09-25T23:43:50.385Z,103331.00
2018-09-25T23:46:23.423Z,103331.00
2018-09-25T23:49:23.714Z,103336.00
2018-09-25T23:52:04.680Z,103324.00
2018-09-25T23:54:39.461Z,103333.00
2018-09-25T23:57:14.545Z,103335.00
2018-09-25T23:59:58.084Z,103327.00
